Time;durP1;ratioP1;P1;durP2;ratioP2;P2;SDS_P1;SDS_P2;PMS_P1;PMS_P2;Temp;Humidity;BMP_temperature;BMP_pressure;BME280_temperature;BME280_humidity;BME280_pressure;Samples;Min_cycle;Max_cycle;Signal;HPM_P1;HPM_P2
2022/08/28 00:01:13;;;;;;;8.23;4.25;;;;;;;22.73;73.32;100834.19;2092969;28;20044;-74
2022/08/28 00:02:37;;;;;;;8.52;4.10;;;;;;;22.76;73.40;100842.19;2098426;28;20431;-74
2022/08/28 00:04:00;;;;;;;10.73;4.20;;;;;;;22.76;73.36;100831.41;2094633;28;20052;-74
2022/08/28 00:05:24;;;;;;;11.45;4.32;;;;;;;22.78;73.17;100826.84;2086800;28;20144;-74
2022/08/28 00:06:47;;;;;;;9.10;3.85;;;;;;;22.76;73.16;100830.53;2088552;28;20048;-74
2022/08/28 00:08:11;;;;;;;11.40;4.90;;;;;;;22.76;72.86;100825.16;2092053;28;20148;-74
2022/08/28 00:09:33;;;;;;;9.20;4.00;;;;;;;22.75;72.75;100831.47;2096411;28;20052;-75
2022/08/28 00:10:55;;;;;;;8.00;3.85;;;;;;;22.69;72.50;100832.53;2102541;28;20048;-74
2022/08/28 00:12:17;;;;;;;8.48;4.13;;;;;;;22.58;72.71;100840.03;2097437;28;20057;-74
2022/08/28 00:13:39;;;;;;;9.20;4.00;;;;;;;22.48;72.97;100841.28;2094672;28;20046;-74
2022/08/28 00:15:01;;;;;;;7.57;4.15;;;;;;;22.46;73.32;100843.13;2094904;28;20105;-75
2022/08/28 00:16:23;;;;;;;18.95;5.03;;;;;;;22.49;73.17;100837.66;2091290;28;20071;-74
2022/08/28 00:17:46;;;;;;;10.23;3.70;;;;;;;22.54;72.99;100841.09;2094950;28;20045;-75
2022/08/28 00:19:09;;;;;;;9.98;4.90;;;;;;;22.56;72.83;100840.13;2086459;28;20458;-74
2022/08/28 00:20:32;;;;;;;8.60;3.55;;;;;;;22.58;72.87;100840.03;2092336;28;20049;-75
2022/08/28 00:21:56;;;;;;;7.53;3.80;;;;;;;22.61;72.72;100839.97;2095130;28;20412;-74
2022/08/28 00:23:18;;;;;;;7.05;3.80;;;;;;;22.63;72.47;100843.50;2094777;28;20056;-74
2022/08/28 00:24:41;;;;;;;;;;;;;;;22.60;72.27;100841.78;2086884;28;20045;-74
2022/08/28 00:26:03;;;;;;;9.20;3.85;;;;;;;22.61;72.34;100842.66;2092398;28;20030;-74
2022/08/28 00:29:07;;;;;;;7.63;3.63;;;;;;;22.60;72.24;100836.38;2097217;28;20044;-75
2022/08/28 00:30:33;;;;;;;7.57;3.95;;;;;;;22.59;72.22;100845.38;2086709;28;20079;-74
2022/08/28 00:31:56;;;;;;;6.95;3.65;;;;;;;22.49;72.36;100843.06;2095576;28;20068;-74
2022/08/28 00:33:24;;;;;;;11.23;3.88;;;;;;;22.41;72.68;100835.22;2097118;28;20048;-75
2022/08/28 00:34:46;;;;;;;6.50;3.65;;;;;;;22.42;72.98;100841.47;2089162;28;20638;-75
2022/08/28 00:36:10;;;;;;;7.22;3.80;;;;;;;22.42;73.09;100841.47;2078290;28;20091;-74
2022/08/28 00:37:31;;;;;;;7.32;4.13;;;;;;;22.45;73.16;100841.41;2083919;28;20086;-74
2022/08/28 00:38:53;;;;;;;6.65;4.00;;;;;;;22.48;72.95;100846.66;2086057;28;20072;-74
2022/08/28 00:40:17;;;;;;;6.88;3.92;;;;;;;22.48;72.75;100850.25;2089031;28;20048;-74
2022/08/28 00:41:40;;;;;;;8.30;3.88;;;;;;;22.44;72.74;100845.03;2086074;28;20063;-75
2022/08/28 00:43:05;;;;;;;8.18;4.00;;;;;;;22.41;73.02;100850.47;2080281;28;20045;-74
2022/08/28 00:44:27;;;;;;;9.60;4.50;;;;;;;22.41;73.14;100845.97;2076097;28;20045;-75
2022/08/28 00:45:50;;;;;;;11.80;4.38;;;;;;;22.43;72.95;100841.44;2083662;28;20053;-74
2022/08/28 00:47:12;;;;;;;6.63;3.72;;;;;;;22.46;72.97;100843.13;2078189;28;20042;-74
2022/08/28 00:48:36;;;;;;;7.25;3.97;;;;;;;22.49;72.90;100840.38;2085312;28;20497;-74
2022/08/28 00:49:58;;;;;;;8.15;4.18;;;;;;;22.46;72.99;100838.63;2086492;28;20192;-75
2022/08/28 00:53:01;;;;;;;8.75;4.38;;;;;;;22.47;73.13;100842.22;2088641;28;20565;-75
2022/08/28 00:54:24;;;;;;;10.73;4.60;;;;;;;22.46;73.12;100843.13;2094676;28;20583;-74
2022/08/28 00:55:46;;;;;;;8.95;3.35;;;;;;;22.46;73.14;100838.63;2094707;28;20044;-74
2022/08/28 00:57:15;;;;;;;8.23;3.97;;;;;;;22.49;72.81;100837.66;2093783;28;20131;-74
2022/08/28 00:58:38;;;;;;;8.30;3.67;;;;;;;22.46;72.80;100843.13;2095004;28;20359;-74
2022/08/28 01:00:00;;;;;;;9.25;3.58;;;;;;;22.37;73.06;100843.44;2094659;28;20497;-74
2022/08/28 01:01:22;;;;;;;7.38;4.18;;;;;;;22.33;73.32;100847.16;2089823;28;20135;-74
2022/08/28 01:02:44;;;;;;;8.93;3.90;;;;;;;22.34;73.22;100846.22;2089432;28;20053;-74
2022/08/28 01:04:08;;;;;;;7.32;3.60;;;;;;;22.35;73.08;100851.56;2093485;28;20064;-74
2022/08/28 01:05:31;;;;;;;11.60;4.32;;;;;;;22.33;73.24;100849.84;2085491;28;20085;-74
2022/08/28 01:06:55;;;;;;;6.43;3.78;;;;;;;22.33;73.21;100852.53;2080494;28;20041;-74
2022/08/28 01:08:18;;;;;;;8.32;3.95;;;;;;;22.33;73.26;100855.22;2091046;28;20102;-73
2022/08/28 01:09:42;;;;;;;10.40;4.30;;;;;;;22.31;73.33;100855.28;2098488;28;20036;-74
2022/08/28 01:11:08;;;;;;;8.10;3.83;;;;;;;22.30;73.44;100850.84;2097081;28;20728;-74
2022/08/28 01:12:33;;;;;;;8.45;3.90;;;;;;;22.31;73.42;100855.28;2080678;28;20132;-75
2022/08/28 01:13:58;;;;;;;6.40;3.72;;;;;;;22.33;73.39;100850.72;2078353;28;20049;-75
2022/08/28 01:15:24;;;;;;;13.82;4.60;;;;;;;22.35;73.38;100850.69;2084366;28;20529;-75
2022/08/28 01:16:51;;;;;;;7.47;4.05;;;;;;;22.37;73.38;100844.34;2086845;28;20041;-74
2022/08/28 01:18:15;;;;;;;8.18;4.05;;;;;;;22.39;73.38;100852.31;2069726;28;20379;-74
2022/08/28 01:19:43;;;;;;;6.68;4.05;;;;;;;22.40;73.44;100846.03;2083850;28;20045;-75
2022/08/28 01:21:15;;;;;;;7.00;4.00;;;;;;;22.39;73.36;100846.94;2078299;28;20076;-75
2022/08/28 01:22:44;;;;;;;8.75;4.05;;;;;;;22.37;73.74;100846.13;2094600;28;20040;-75
2022/08/28 01:24:13;;;;;;;7.10;3.83;;;;;;;22.35;73.87;100846.19;2094966;28;20060;-76
2022/08/28 01:25:36;;;;;;;11.60;4.22;;;;;;;22.34;74.08;100848.91;2086667;28;20084;-74
2022/08/28 01:26:59;;;;;;;7.95;4.00;;;;;;;22.34;74.18;100846.22;2086291;28;20052;-74
2022/08/28 01:28:22;;;;;;;8.85;3.90;;;;;;;22.31;74.02;100840.97;2085592;28;20083;-74
2022/08/28 01:29:43;;;;;;;8.90;4.13;;;;;;;22.28;74.21;100841.91;2101628;28;20265;-74
2022/08/28 01:31:06;;;;;;;12.52;4.03;;;;;;;22.24;74.24;100841.16;2082996;28;20132;-74
2022/08/28 01:32:32;;;;;;;10.70;4.50;;;;;;;22.25;74.46;100833.97;2085008;28;20521;-73
2022/08/28 01:33:56;;;;;;;9.32;4.20;;;;;;;22.27;74.53;100842.84;2094507;28;20059;-74
2022/08/28 01:35:24;;;;;;;10.23;4.30;;;;;;;22.32;74.19;100840.03;2094696;28;20163;-74
2022/08/28 01:36:47;;;;;;;7.32;4.38;;;;;;;22.34;74.22;100835.47;2096785;28;20051;-74
2022/08/28 01:38:10;;;;;;;9.48;4.40;;;;;;;22.34;74.33;100832.78;2095169;28;20052;-75
2022/08/28 01:39:34;;;;;;;9.63;4.38;;;;;;;22.34;74.62;100833.66;2102470;28;20214;-73
2022/08/28 01:40:58;;;;;;;8.57;4.78;;;;;;;22.33;75.13;100842.66;2093371;28;20048;-74
2022/08/28 01:42:21;;;;;;;10.60;4.15;;;;;;;22.33;75.31;100831.88;2094022;28;20155;-75
2022/08/28 01:43:43;;;;;;;8.43;3.90;;;;;;;22.34;75.53;100833.66;2102336;28;20040;-76
2022/08/28 01:45:09;;;;;;;8.82;4.30;;;;;;;22.33;75.37;100831.00;2096781;28;20048;-75
2022/08/28 01:46:31;;;;;;;9.00;4.07;;;;;;;22.30;75.39;100832.00;2088415;28;20045;-75
2022/08/28 01:47:56;;;;;;;9.25;4.22;;;;;;;22.30;75.47;100821.25;2091535;28;20413;-74
2022/08/28 01:49:18;;;;;;;8.90;5.00;;;;;;;22.30;75.44;100823.03;2101438;28;20388;-75
2022/08/28 01:50:41;;;;;;;9.70;4.75;;;;;;;22.30;75.69;100831.13;2088162;28;20053;-74
2022/08/28 01:52:04;;;;;;;12.90;4.78;;;;;;;22.31;76.00;100830.19;2083326;28;20044;-74
2022/08/28 01:53:27;;;;;;;8.07;4.57;;;;;;;22.31;76.35;100832.88;2085337;28;20107;-75
2022/08/28 01:54:51;;;;;;;8.10;4.40;;;;;;;22.32;76.55;100832.81;2094217;28;20048;-74
2022/08/28 01:56:15;;;;;;;6.65;4.07;;;;;;;22.33;76.62;100825.63;2102147;28;20086;-74
2022/08/28 01:57:43;;;;;;;9.68;4.75;;;;;;;22.34;76.74;100830.06;2102440;28;20394;-74
2022/08/28 01:59:07;;;;;;;8.05;4.78;;;;;;;22.34;76.88;100827.38;2102828;28;20082;-74
2022/08/28 02:00:30;;;;;;;10.23;5.13;;;;;;;22.35;76.74;100827.34;2094193;28;20040;-75
2022/08/28 02:01:51;;;;;;;8.93;5.28;;;;;;;22.33;76.73;100822.94;2099946;28;20504;-75
2022/08/28 02:03:14;;;;;;;9.40;4.80;;;;;;;22.35;76.69;100826.47;2098182;28;20055;-74
2022/08/28 02:04:37;;;;;;;9.52;4.07;;;;;;;22.35;76.75;100827.34;2094013;28;20051;-74
2022/08/28 02:05:58;;;;;;;8.70;4.32;;;;;;;22.36;76.87;100830.91;2093944;28;20048;-74
2022/08/28 02:07:21;;;;;;;9.70;4.78;;;;;;;22.36;76.86;100823.72;2095553;28;20103;-75
2022/08/28 02:08:48;;;;;;;13.70;6.50;;;;;;;22.37;76.85;100830.00;2092444;28;20041;-74
2022/08/28 02:10:11;;;;;;;8.45;4.15;;;;;;;22.39;77.09;100825.44;2094300;28;20056;-75
2022/08/28 02:11:34;;;;;;;8.63;4.72;;;;;;;22.39;77.21;100830.81;2101389;28;20043;-74
2022/08/28 02:12:57;;;;;;;11.98;4.32;;;;;;;22.39;77.41;100825.44;2088171;28;20102;-74
2022/08/28 02:14:21;;;;;;;10.27;5.05;;;;;;;22.39;77.71;100831.69;2093966;28;20040;-75
2022/08/28 02:15:42;;;;;;;12.88;4.82;;;;;;;22.41;78.06;100834.34;2094112;28;20436;-75
2022/08/28 02:17:05;;;;;;;11.13;5.25;;;;;;;22.42;78.35;100836.09;2085488;28;20045;-75
2022/08/28 02:18:27;;;;;;;8.48;5.03;;;;;;;22.43;78.39;100833.38;2085546;28;20053;-75
2022/08/28 02:19:49;;;;;;;15.15;5.18;;;;;;;22.44;78.59;100835.13;2083051;28;20041;-74
2022/08/28 02:21:13;;;;;;;13.50;7.65;;;;;;;22.47;78.82;100839.53;2102225;28;20051;-74
2022/08/28 02:22:36;;;;;;;8.13;4.68;;;;;;;22.47;79.07;100828.75;2102081;28;20108;-75
2022/08/28 02:23:59;;;;;;;9.90;4.53;;;;;;;22.48;78.99;100833.22;2093931;28;20572;-75
2022/08/28 02:25:23;;;;;;;8.15;4.57;;;;;;;22.47;78.75;100829.63;2093825;28;20048;-74
2022/08/28 02:26:46;;;;;;;8.95;4.55;;;;;;;22.46;78.56;100835.06;2080719;28;20045;-74
2022/08/28 02:28:08;;;;;;;11.43;5.97;;;;;;;22.46;78.55;100837.75;2096475;28;20511;-74
2022/08/28 02:29:30;;;;;;;14.43;6.13;;;;;;;22.45;78.54;100830.63;2093921;28;20086;-75
2022/08/28 02:30:52;;;;;;;10.80;5.68;;;;;;;22.45;78.71;100833.34;2091155;28;20060;-75
2022/08/28 02:32:14;;;;;;;8.80;4.95;;;;;;;22.44;78.97;100835.13;2084604;28;20139;-75
2022/08/28 02:33:37;;;;;;;9.77;4.95;;;;;;;22.44;79.25;100831.56;2093105;28;20093;-75
2022/08/28 02:34:59;;;;;;;9.05;4.47;;;;;;;22.45;79.46;100838.72;2085510;28;20080;-74
2022/08/28 02:36:22;;;;;;;14.10;5.13;;;;;;;22.47;79.65;100837.72;2091388;28;20143;-74
2022/08/28 02:37:45;;;;;;;11.02;6.13;;;;;;;22.49;79.77;100845.75;2094138;28;20048;-74
2022/08/28 02:39:08;;;;;;;9.55;5.22;;;;;;;22.51;79.95;100838.50;2092866;28;20453;-74
2022/08/28 02:40:30;;;;;;;10.63;4.93;;;;;;;22.53;80.09;100852.78;2093917;28;20424;-75
2022/08/28 02:41:53;;;;;;;9.60;4.93;;;;;;;22.51;80.02;100844.75;2099147;28;20048;-75
2022/08/28 02:43:14;;;;;;;9.95;4.82;;;;;;;22.53;80.15;100850.09;2100997;28;20926;-75
2022/08/28 02:44:37;;;;;;;11.13;4.53;;;;;;;22.52;80.27;100846.50;2102143;28;20039;-75
2022/08/28 02:45:58;;;;;;;9.70;4.47;;;;;;;22.53;80.30;100850.09;2090272;28;20082;-74
2022/08/28 02:47:21;;;;;;;;;;;;;;;22.51;80.25;100846.59;2091165;28;20052;-74
2022/08/28 02:48:42;;;;;;;10.75;5.07;;;;;;;22.50;80.40;100842.13;2093046;28;19924;-74
2022/08/28 02:50:06;;;;;;;13.10;4.70;;;;;;;22.50;80.43;100843.00;2093848;28;20054;-74
2022/08/28 02:51:30;;;;;;;10.15;5.15;;;;;;;22.52;80.38;100846.50;2085726;28;20048;-74
2022/08/28 02:52:53;;;;;;;11.40;5.25;;;;;;;22.52;80.43;100843.81;2091145;28;20040;-74
2022/08/28 02:54:16;;;;;;;12.15;4.95;;;;;;;22.53;80.77;100850.09;2093944;28;20086;-75
2022/08/28 02:55:38;;;;;;;10.80;5.40;;;;;;;22.54;80.76;100850.03;2093680;28;20139;-75
2022/08/28 02:57:01;;;;;;;7.70;4.95;;;;;;;22.52;80.85;100842.94;2098756;28;20091;-75
2022/08/28 02:58:25;;;;;;;14.13;4.40;;;;;;;22.52;80.90;100846.50;2102096;28;20076;-75
2022/08/28 02:59:47;;;;;;;11.05;6.00;;;;;;;22.50;80.86;100848.41;2093704;28;20136;-74
2022/08/28 03:01:13;;;;;;;8.88;4.50;;;;;;;22.53;80.90;100847.41;2099051;28;20130;-74
2022/08/28 03:02:35;;;;;;;13.65;5.28;;;;;;;22.52;80.84;100849.19;2096453;28;20053;-74
2022/08/28 03:03:58;;;;;;;9.75;4.57;;;;;;;22.52;80.99;100851.91;2088460;28;20135;-75
2022/08/28 03:05:22;;;;;;;9.20;4.85;;;;;;;22.55;80.99;100848.22;2094812;28;20045;-75
2022/08/28 03:06:45;;;;;;;7.80;4.65;;;;;;;22.53;80.98;100850.09;2093884;28;20059;-74
2022/08/28 03:08:06;;;;;;;11.15;5.18;;;;;;;22.53;81.11;100842.91;2097663;28;20056;-75
2022/08/28 03:09:29;;;;;;;9.25;4.60;;;;;;;22.52;81.10;100845.63;2096497;28;20052;-75
2022/08/28 03:10:53;;;;;;;8.40;4.72;;;;;;;22.54;81.19;100847.34;2093506;28;20111;-74
2022/08/28 03:12:16;;;;;;;7.53;4.22;;;;;;;22.54;81.14;100849.16;2100360;28;20052;-74
2022/08/28 03:13:39;;;;;;;8.43;4.97;;;;;;;22.54;81.34;100847.34;2095983;28;20583;-75
2022/08/28 03:15:00;;;;;;;9.63;5.03;;;;;;;22.56;81.26;100847.31;2085388;28;20488;-74
2022/08/28 03:16:24;;;;;;;;;;;;;;;22.54;81.24;100852.72;2091228;28;20374;-75
2022/08/28 03:17:46;;;;;;;9.82;4.70;;;;;;;22.54;81.21;100849.16;2093788;28;19921;-75
2022/08/28 03:19:09;;;;;;;10.85;4.93;;;;;;;22.56;81.25;100852.69;2085316;28;20052;-75
2022/08/28 03:20:32;;;;;;;9.32;4.43;;;;;;;22.57;81.20;100846.38;2085114;28;20076;-75
2022/08/28 03:21:55;;;;;;;10.85;5.65;;;;;;;22.56;80.98;100850.88;2095244;28;20440;-75
2022/08/28 03:23:26;;;;;;;9.65;4.40;;;;;;;22.56;81.07;100847.31;2090252;28;20064;-73
2022/08/28 03:24:49;;;;;;;7.90;4.55;;;;;;;22.56;81.20;100850.00;2085084;28;20693;-75
2022/08/28 03:26:15;;;;;;;8.32;4.68;;;;;;;22.58;81.05;100854.38;2093619;28;20081;-75
2022/08/28 03:27:36;;;;;;;11.48;4.57;;;;;;;22.55;81.04;100857.19;2093759;28;20059;-75
2022/08/28 03:28:59;;;;;;;10.50;4.78;;;;;;;22.53;81.00;100853.66;2085187;28;20060;-75
2022/08/28 03:30:22;;;;;;;12.23;5.55;;;;;;;22.52;81.07;100851.91;2091413;28;20040;-75
2022/08/28 03:31:44;;;;;;;8.75;4.78;;;;;;;22.51;81.13;100854.66;2094523;28;20047;-75
2022/08/28 03:33:06;;;;;;;11.43;4.75;;;;;;;22.53;81.22;100850.97;2085024;28;20041;-75
2022/08/28 03:34:28;;;;;;;9.35;4.70;;;;;;;22.53;81.31;100853.66;2099004;28;20052;-75
2022/08/28 03:35:51;;;;;;;11.15;4.70;;;;;;;22.55;81.53;100853.63;2098794;28;20040;-75
2022/08/28 03:37:14;;;;;;;9.75;4.55;;;;;;;22.54;81.37;100858.13;2093379;28;20055;-75
2022/08/28 03:38:37;;;;;;;9.25;4.70;;;;;;;22.54;81.36;100854.53;2101990;28;20036;-74
2022/08/28 03:40:00;;;;;;;11.90;4.80;;;;;;;22.54;81.47;100858.13;2087038;28;20292;-74
2022/08/28 03:41:27;;;;;;;9.35;4.63;;;;;;;22.55;81.38;100859.88;2090319;28;20505;-75
2022/08/28 03:42:49;;;;;;;9.65;5.15;;;;;;;22.55;81.30;100856.31;2094293;28;20424;-75
2022/08/28 03:44:11;;;;;;;9.02;4.97;;;;;;;22.56;81.36;100863.47;2085199;28;20473;-74
2022/08/28 03:45:33;;;;;;;9.30;4.88;;;;;;;22.57;81.38;100860.72;2088372;28;20131;-74
2022/08/28 03:46:55;;;;;;;10.43;4.70;;;;;;;22.58;81.36;100865.16;2097008;28;20109;-74
2022/08/28 03:48:18;;;;;;;14.52;5.10;;;;;;;22.59;81.22;100858.84;2086818;28;20060;-75
2022/08/28 03:49:41;;;;;;;9.05;5.07;;;;;;;22.60;81.30;100862.41;2092532;28;20106;-74
2022/08/28 03:51:08;;;;;;;11.05;4.70;;;;;;;22.59;81.31;100860.66;2095310;28;20136;-74
2022/08/28 03:52:30;;;;;;;8.10;4.57;;;;;;;22.57;81.46;100865.22;2097717;28;20130;-75
2022/08/28 03:53:53;;;;;;;7.57;4.60;;;;;;;22.59;81.39;100860.66;2086654;28;20047;-75
2022/08/28 03:55:15;;;;;;;8.05;4.40;;;;;;;22.60;81.49;100862.41;2109483;28;20094;-75
2022/08/28 03:56:42;;;;;;;;;;;;;;;22.59;81.51;100866.91;2092832;28;20056;-75
2022/08/28 03:58:03;;;;;;;11.38;5.15;;;;;;;22.61;81.60;100866.88;2093367;28;19927;-74
2022/08/28 03:59:27;;;;;;;11.30;5.40;;;;;;;22.63;81.54;100863.22;2103249;28;20588;-75
2022/08/28 04:00:50;;;;;;;12.95;4.82;;;;;;;22.66;81.54;100868.47;2090181;28;20673;-74
2022/08/28 04:02:11;;;;;;;9.38;4.88;;;;;;;22.71;81.70;100876.41;2084144;28;20037;-75
2022/08/28 04:03:34;;;;;;;8.77;5.03;;;;;;;22.73;81.52;100868.31;2084270;28;20063;-74
2022/08/28 04:04:57;;;;;;;12.25;4.97;;;;;;;22.76;81.63;100869.09;2086782;28;20084;-74
2022/08/28 04:06:18;;;;;;;9.85;4.85;;;;;;;22.78;81.38;100871.72;2092219;28;20052;-75
2022/08/28 04:07:41;;;;;;;10.75;5.03;;;;;;;22.80;81.23;100872.56;2103237;28;20385;-74
2022/08/28 04:09:03;;;;;;;10.27;5.10;;;;;;;22.83;81.16;100873.38;2100276;28;20058;-75
2022/08/28 04:10:25;;;;;;;10.82;5.57;;;;;;;22.86;81.04;100869.66;2092211;28;20048;-75
2022/08/28 04:11:50;;;;;;;11.90;6.03;;;;;;;22.91;81.12;100873.97;2086825;28;20107;-74
2022/08/28 04:13:15;;;;;;;13.82;5.20;;;;;;;22.99;81.47;100871.03;2092679;28;20049;-75
2022/08/28 04:14:36;;;;;;;11.48;4.78;;;;;;;23.05;81.65;100869.00;2095133;28;20028;-74
2022/08/28 04:16:01;;;;;;;10.13;4.68;;;;;;;23.13;81.61;100873.25;2086615;28;20073;-75
2022/08/28 04:17:22;;;;;;;9.73;4.53;;;;;;;23.21;81.74;100877.44;2092243;28;20040;-74
2022/08/28 04:18:46;;;;;;;8.30;4.30;;;;;;;23.30;81.46;100870.88;2094448;28;20393;-75
2022/08/28 04:20:09;;;;;;;9.20;4.47;;;;;;;23.39;81.62;100874.09;2089408;28;20057;-74
2022/08/28 04:21:32;;;;;;;9.88;4.65;;;;;;;23.48;81.14;100870.25;2092437;28;20135;-75
2022/08/28 04:22:54;;;;;;;10.27;4.10;;;;;;;23.57;80.90;100869.91;2095669;28;20040;-74
2022/08/28 04:24:16;;;;;;;10.52;3.95;;;;;;;23.62;80.60;100873.31;2102950;28;20508;-75
2022/08/28 04:25:40;;;;;;;9.07;4.18;;;;;;;23.69;80.64;100876.69;2111375;28;20050;-75
2022/08/28 04:27:05;;;;;;;8.27;4.03;;;;;;;23.77;80.52;100878.13;2102333;28;20048;-76
2022/08/28 04:28:26;;;;;;;7.38;4.10;;;;;;;23.88;80.00;100876.88;2086658;28;20067;-74
2022/08/28 04:29:49;;;;;;;9.00;4.07;;;;;;;23.96;79.86;100881.03;2094729;28;20128;-74
2022/08/28 04:31:11;;;;;;;6.13;3.58;;;;;;;24.07;80.07;100880.63;2094657;28;20083;-75
2022/08/28 04:32:34;;;;;;;8.77;3.88;;;;;;;24.17;79.51;100877.50;2094947;28;20043;-75
2022/08/28 04:33:58;;;;;;;7.40;3.40;;;;;;;24.28;79.57;100879.84;2094434;28;20048;-75
2022/08/28 04:35:20;;;;;;;9.73;3.78;;;;;;;24.37;79.30;100887.56;2095114;28;20558;-75
2022/08/28 04:36:41;;;;;;;10.30;4.28;;;;;;;24.48;79.00;100889.84;2094577;28;20447;-75
2022/08/28 04:38:04;;;;;;;11.02;4.25;;;;;;;24.57;79.06;100887.66;2094110;28;20044;-75
2022/08/28 04:39:26;;;;;;;11.75;3.47;;;;;;;24.66;78.46;100883.72;2086513;28;20091;-75
2022/08/28 04:40:47;;;;;;;7.57;4.07;;;;;;;24.76;78.32;100886.91;2092141;28;20135;-75
2022/08/28 04:42:11;;;;;;;8.82;3.78;;;;;;;24.85;78.33;100887.41;2094475;28;20148;-74
2022/08/28 04:43:33;;;;;;;7.80;3.63;;;;;;;24.95;78.32;100896.03;2086401;28;20513;-75
2022/08/28 04:44:56;;;;;;;9.90;3.58;;;;;;;25.06;77.97;100882.09;2091298;28;20053;-75
2022/08/28 04:46:18;;;;;;;9.63;3.78;;;;;;;25.16;77.76;100884.31;2097241;28;20499;-75
2022/08/28 04:47:40;;;;;;;6.88;3.47;;;;;;;25.27;77.36;100884.75;2096068;28;20436;-75
2022/08/28 04:49:04;;;;;;;9.10;3.40;;;;;;;25.41;77.28;100878.75;2093678;28;20080;-75
2022/08/28 04:50:27;;;;;;;4.97;2.70;;;;;;;25.52;76.93;100879.16;2094810;28;20115;-75
2022/08/28 04:51:50;;;;;;;9.38;3.45;;;;;;;25.65;76.94;100880.41;2094569;28;20487;-75
2022/08/28 04:53:12;;;;;;;9.40;3.42;;;;;;;25.78;76.33;100878.91;2100074;28;20126;-75
2022/08/28 04:54:35;;;;;;;6.43;3.60;;;;;;;25.91;75.93;100883.75;2097130;28;20042;-75
2022/08/28 04:55:58;;;;;;;6.50;2.92;;;;;;;26.01;75.69;100875.13;2086023;28;20072;-75
2022/08/28 04:57:22;;;;;;;8.40;3.05;;;;;;;26.16;75.41;100877.13;2087410;28;20127;-75
2022/08/28 04:58:44;;;;;;;10.77;4.25;;;;;;;26.27;74.44;100883.88;2091720;28;20404;-75
2022/08/28 05:00:08;;;;;;;;;;;;;;;26.35;74.25;100879.00;2097881;28;20047;-75
2022/08/28 05:01:31;;;;;;;5.90;2.85;;;;;;;26.49;74.36;100879.22;2101907;28;19926;-75
2022/08/28 05:02:52;;;;;;;7.55;3.13;;;;;;;26.65;74.13;100879.34;2101423;28;20598;-75
2022/08/28 05:04:16;;;;;;;11.93;3.17;;;;;;;26.80;73.74;100876.75;2102814;28;20512;-75
2022/08/28 05:05:41;;;;;;;11.40;3.30;;;;;;;26.95;73.22;100875.16;2092307;28;20040;-75
2022/08/28 05:07:04;;;;;;;6.05;2.90;;;;;;;27.07;72.61;100879.94;2092780;28;20137;-75
2022/08/28 05:08:27;;;;;;;10.25;3.50;;;;;;;27.20;72.27;100877.47;2099067;28;20044;-75
2022/08/28 05:09:53;;;;;;;7.78;3.42;;;;;;;27.35;71.68;100876.69;2102701;28;20036;-76
2022/08/28 05:11:18;;;;;;;7.28;3.00;;;;;;;27.52;71.12;100875.84;2102489;28;20051;-76
2022/08/28 05:12:42;;;;;;;6.68;2.65;;;;;;;27.66;70.45;100875.97;2094748;28;20069;-75
2022/08/28 05:14:09;;;;;;;11.13;2.85;;;;;;;27.82;70.04;100878.75;2099946;28;20071;-75
2022/08/28 05:15:32;;;;;;;9.55;3.30;;;;;;;27.95;69.48;100867.16;2103004;28;20131;-75
2022/08/28 05:16:56;;;;;;;9.25;3.25;;;;;;;28.07;68.77;100866.47;2094482;28;20040;-76
2022/08/28 05:18:21;;;;;;;10.02;2.90;;;;;;;28.22;68.01;100866.63;2090972;28;20049;-75
2022/08/28 05:19:44;;;;;;;6.78;2.60;;;;;;;28.34;67.12;100871.38;2093478;28;20041;-76
2022/08/28 05:21:12;;;;;;;5.82;2.58;;;;;;;28.49;66.64;100871.34;2099999;28;20056;-75
2022/08/28 05:22:35;;;;;;;10.70;2.95;;;;;;;28.61;65.88;100877.06;2094149;28;20037;-75
2022/08/28 05:23:57;;;;;;;6.70;2.75;;;;;;;28.72;64.99;100874.59;2085408;28;20482;-76
2022/08/28 05:25:20;;;;;;;5.53;2.58;;;;;;;28.84;64.67;100877.53;2091856;28;20056;-75
2022/08/28 05:26:43;;;;;;;11.35;3.22;;;;;;;29.01;64.24;100878.38;2102009;28;20044;-75
2022/08/28 05:28:08;;;;;;;5.45;2.42;;;;;;;29.12;63.50;100881.34;2087968;28;20048;-75
2022/08/28 05:29:31;;;;;;;8.80;2.83;;;;;;;29.18;62.36;100873.69;2092094;28;20155;-76
2022/08/28 05:30:54;;;;;;;8.25;3.15;;;;;;;29.26;61.56;100874.13;2094008;28;20040;-76
2022/08/28 05:32:16;;;;;;;7.53;3.00;;;;;;;29.36;61.43;100876.28;2099955;28;20043;-75
2022/08/28 05:33:38;;;;;;;7.20;3.03;;;;;;;29.40;60.87;100872.44;2092212;28;20076;-76
2022/08/28 05:35:01;;;;;;;7.95;2.88;;;;;;;29.53;60.48;100866.16;2083107;28;20391;-75
2022/08/28 05:36:27;;;;;;;9.02;3.05;;;;;;;29.61;59.16;100865.66;2083911;28;20057;-75
2022/08/28 05:37:51;;;;;;;8.70;3.40;;;;;;;29.62;58.42;100868.28;2085177;28;20456;-75
2022/08/28 05:39:14;;;;;;;6.32;2.80;;;;;;;29.70;58.39;100865.97;2085151;28;20041;-75
2022/08/28 05:40:42;;;;;;;9.85;3.30;;;;;;;29.84;58.26;100867.84;2093158;28;20094;-75
2022/08/28 05:42:04;;;;;;;7.70;2.42;;;;;;;29.93;57.37;100870.00;2082841;28;20056;-75
2022/08/28 05:43:28;;;;;;;8.40;2.83;;;;;;;30.05;56.95;100871.09;2082397;28;20091;-76
2022/08/28 05:44:51;;;;;;;7.53;2.60;;;;;;;30.19;57.09;100867.47;2093117;28;20052;-76
2022/08/28 05:46:14;;;;;;;7.53;3.10;;;;;;;30.36;56.70;100869.97;2093123;28;20595;-75
2022/08/28 05:47:37;;;;;;;10.07;3.58;;;;;;;30.55;56.83;100872.41;2088015;28;20673;-75
2022/08/28 05:49:00;;;;;;;7.43;2.80;;;;;;;30.74;56.38;100875.66;2093893;28;20063;-76
2022/08/28 05:50:22;;;;;;;12.02;3.42;;;;;;;30.91;56.08;100866.38;2079382;28;20034;-76
2022/08/28 05:51:46;;;;;;;10.20;3.25;;;;;;;31.07;55.55;100873.44;2077608;28;20049;-75
2022/08/28 05:53:09;;;;;;;6.15;2.90;;;;;;;31.22;55.20;100871.53;2083527;28;20454;-75
2022/08/28 05:54:32;;;;;;;8.25;2.33;;;;;;;31.37;54.84;100872.31;2093439;28;20102;-75
2022/08/28 05:55:54;;;;;;;7.22;3.38;;;;;;;31.50;54.41;100874.09;2085636;28;20052;-75
2022/08/28 05:57:16;;;;;;;9.30;2.90;;;;;;;31.60;54.19;100869.75;2085220;28;20056;-75
2022/08/28 05:58:40;;;;;;;8.00;2.97;;;;;;;31.74;54.05;100871.53;2085671;28;20127;-76
2022/08/28 06:00:04;;;;;;;8.18;2.47;;;;;;;31.87;53.98;100872.41;2084956;28;20057;-76
2022/08/28 06:01:28;;;;;;;9.73;2.90;;;;;;;31.98;53.60;100875.22;2091730;28;20052;-76
2022/08/28 06:02:49;;;;;;;9.90;2.83;;;;;;;32.01;53.56;100872.28;2096744;28;20048;-75
2022/08/28 06:04:16;;;;;;;8.95;2.90;;;;;;;32.06;53.15;100867.34;2085360;28;20374;-76
2022/08/28 06:05:37;;;;;;;9.98;2.47;;;;;;;32.12;53.10;100863.31;2083908;28;20048;-76
2022/08/28 06:07:00;;;;;;;10.50;2.42;;;;;;;32.21;52.98;100864.53;2093788;28;20051;-75
2022/08/28 06:08:22;;;;;;;10.38;2.70;;;;;;;32.23;52.46;100868.88;2092550;28;20048;-75
2022/08/28 06:09:44;;;;;;;5.90;2.45;;;;;;;32.18;52.16;100868.34;2083072;28;20505;-75
2022/08/28 06:11:06;;;;;;;6.05;2.42;;;;;;;32.20;52.16;100862.78;2095845;28;20048;-76
2022/08/28 06:12:28;;;;;;;7.70;2.78;;;;;;;32.25;51.91;100868.78;2091926;28;20370;-75
2022/08/28 06:13:53;;;;;;;8.73;2.75;;;;;;;32.33;51.79;100867.25;2085469;28;20041;-76
2022/08/28 06:15:16;;;;;;;9.32;3.45;;;;;;;32.44;51.83;100866.44;2087562;28;20483;-75
2022/08/28 06:16:44;;;;;;;9.70;2.75;;;;;;;32.54;51.65;100880.31;2085190;28;20378;-75
2022/08/28 06:18:07;;;;;;;6.50;2.50;;;;;;;32.57;51.22;100874.59;2083177;28;20621;-75
2022/08/28 06:19:31;;;;;;;7.40;2.50;;;;;;;32.67;50.97;100871.13;2089378;28;20066;-76
2022/08/28 06:20:52;;;;;;;7.25;2.90;;;;;;;32.72;50.58;100866.16;2085460;28;20522;-76
2022/08/28 06:22:15;;;;;;;;;;;;;;;32.66;49.86;100882.13;2086004;28;20332;-75
2022/08/28 06:23:37;;;;;;;8.68;2.50;;;;;;;32.70;50.69;100873.59;2091577;28;19972;-76
2022/08/28 06:25:00;;;;;;;4.10;2.28;;;;;;;32.63;50.06;100875.00;2085177;28;20045;-76
2022/08/28 06:26:23;;;;;;;6.93;3.10;;;;;;;32.58;50.21;100879.09;2087026;28;20135;-75
2022/08/28 06:27:45;;;;;;;8.88;2.42;;;;;;;32.68;49.94;100875.59;2085352;28;20049;-75
2022/08/28 06:29:11;;;;;;;10.98;3.13;;;;;;;32.75;49.54;100878.75;2076260;28;20041;-75
2022/08/28 06:30:35;;;;;;;8.63;3.78;;;;;;;32.67;49.61;100881.19;2086409;28;20057;-76